Time;durP1;ratioP1;P1;durP2;ratioP2;P2;SDS_P1;SDS_P2;PMS_P1;PMS_P2;Temp;Humidity;BMP_temperature;BMP_pressure;BME280_temperature;BME280_humidity;BME280_pressure;Samples;Min_cycle;Max_cycle;Signal;HPM_P1;HPM_P2
2023/10/22 00:00:29;;;;;;;27.23;20.92;;;12.60;99.90;;;;;;2078922;28;20832;-79
2023/10/22 00:01:30;;;;;;;24.92;19.90;;;12.60;99.90;;;;;;2083955;28;20511;-78
2023/10/22 00:02:30;;;;;;;27.80;20.95;;;12.60;99.90;;;;;;2080763;28;20111;-77
2023/10/22 00:03:31;;;;;;;23.35;19.40;;;12.60;99.90;;;;;;2088292;28;20060;-81
2023/10/22 00:04:32;;;;;;;23.33;18.80;;;12.60;99.90;;;;;;2078952;28;20044;-75
2023/10/22 00:05:32;;;;;;;23.85;19.40;;;12.60;99.90;;;;;;2082331;28;20021;-79
2023/10/22 00:06:33;;;;;;;25.67;19.13;;;12.60;99.90;;;;;;2078074;28;20044;-79
2023/10/22 00:07:34;;;;;;;23.95;19.35;;;12.60;99.90;;;;;;2082693;28;20586;-79
2023/10/22 00:08:34;;;;;;;23.20;19.50;;;12.60;99.90;;;;;;2075623;28;20052;-79
2023/10/22 00:09:35;;;;;;;23.67;19.25;;;12.60;99.90;;;;;;2077975;28;20275;-80
2023/10/22 00:10:36;;;;;;;24.63;19.05;;;12.60;99.90;;;;;;2074697;28;20034;-81
2023/10/22 00:11:36;;;;;;;21.70;18.40;;;12.60;99.90;;;;;;2081627;28;20029;-80
2023/10/22 00:12:37;;;;;;;24.02;18.83;;;12.60;99.90;;;;;;2080015;28;20631;-80
2023/10/22 00:13:37;;;;;;;24.75;18.95;;;12.60;99.90;;;;;;2083790;28;20484;-79
2023/10/22 00:14:38;;;;;;;25.10;18.60;;;12.60;99.90;;;;;;2078640;28;20021;-79
2023/10/22 00:15:39;;;;;;;24.73;19.38;;;12.60;99.90;;;;;;2081782;28;20566;-78
2023/10/22 00:16:39;;;;;;;22.23;18.48;;;12.60;99.90;;;;;;2084322;28;20047;-79
2023/10/22 00:17:41;;;;;;;26.17;19.63;;;12.60;99.90;;;;;;2082728;28;20469;-78
2023/10/22 00:18:42;;;;;;;28.00;19.75;;;12.60;99.90;;;;;;2080249;28;20032;-79
2023/10/22 00:19:42;;;;;;;24.58;19.88;;;12.60;99.90;;;;;;2081648;28;20086;-79
2023/10/22 00:20:43;;;;;;;24.92;20.30;;;12.60;99.90;;;;;;2078043;28;20121;-80
2023/10/22 00:21:45;;;;;;;24.55;20.00;;;12.60;99.90;;;;;;2075983;28;20083;-79
2023/10/22 00:22:46;;;;;;;25.80;19.90;;;12.60;99.90;;;;;;2083891;28;20182;-79
2023/10/22 00:23:46;;;;;;;24.52;19.55;;;12.50;99.90;;;;;;2075987;28;20492;-79
2023/10/22 00:24:47;;;;;;;27.10;18.98;;;12.50;99.90;;;;;;2075438;28;20642;-79
2023/10/22 00:25:48;;;;;;;26.13;19.45;;;12.50;99.90;;;;;;2082971;28;20049;-79
2023/10/22 00:26:48;;;;;;;25.98;19.40;;;12.50;99.90;;;;;;2080943;28;20037;-79
2023/10/22 00:27:49;;;;;;;23.85;20.17;;;12.50;99.90;;;;;;2067968;28;20123;-79
2023/10/22 00:28:50;;;;;;;22.90;18.63;;;12.50;99.90;;;;;;2075199;28;20033;-79
2023/10/22 00:29:50;;;;;;;23.95;19.73;;;12.50;99.90;;;;;;2085782;28;20020;-79
2023/10/22 00:30:51;;;;;;;23.52;20.15;;;12.50;99.90;;;;;;2077193;28;20670;-80
2023/10/22 00:31:52;;;;;;;23.83;19.52;;;12.50;99.90;;;;;;2076359;28;20129;-79
2023/10/22 00:32:53;;;;;;;23.33;18.38;;;12.50;99.90;;;;;;2082098;28;20068;-79
2023/10/22 00:33:53;;;;;;;24.67;19.38;;;12.50;99.90;;;;;;2082386;28;20108;-80
2023/10/22 00:34:54;;;;;;;26.45;18.85;;;12.50;99.90;;;;;;2076902;28;20033;-80
2023/10/22 00:35:56;;;;;;;23.58;18.77;;;12.50;99.90;;;;;;2083237;28;20204;-79
2023/10/22 00:36:57;;;;;;;22.05;18.70;;;12.50;99.90;;;;;;2083047;28;20021;-78
2023/10/22 00:37:58;;;;;;;21.92;18.20;;;12.50;99.90;;;;;;2075297;28;20487;-80
2023/10/22 00:38:58;;;;;;;23.40;18.77;;;12.60;99.90;;;;;;2082700;28;20021;-78
2023/10/22 00:39:59;;;;;;;23.20;18.63;;;12.60;99.90;;;;;;2083706;28;20073;-79
2023/10/22 00:41:00;;;;;;;22.40;18.25;;;12.50;99.90;;;;;;2079441;28;20053;-79
2023/10/22 00:42:00;;;;;;;24.02;18.02;;;12.50;99.90;;;;;;2082955;28;20030;-78
2023/10/22 00:43:05;;;;;;;23.45;17.90;;;12.60;99.90;;;;;;2083157;28;20032;-79
2023/10/22 00:44:06;;;;;;;21.20;17.40;;;12.60;99.90;;;;;;2080984;28;20036;-80
2023/10/22 00:45:10;;;;;;;22.25;17.10;;;12.60;99.90;;;;;;2080857;28;20094;-78
2023/10/22 00:46:20;;;;;;;20.42;17.17;;;12.60;99.90;;;;;;2083346;28;20093;-78
2023/10/22 00:47:21;;;;;;;23.65;18.30;;;12.60;99.90;;;;;;2079441;28;20033;-78
2023/10/22 00:48:22;;;;;;;23.42;18.65;;;12.60;99.90;;;;;;2084139;28;20068;-79
2023/10/22 00:49:26;;;;;;;24.77;19.15;;;12.60;99.90;;;;;;2079223;28;20568;-78
2023/10/22 00:50:27;;;;;;;22.73;18.90;;;12.60;99.90;;;;;;2074865;28;20021;-78
2023/10/22 00:51:27;;;;;;;21.40;17.88;;;12.60;99.90;;;;;;2078529;28;20024;-78
2023/10/22 00:52:28;;;;;;;21.40;17.83;;;12.60;99.90;;;;;;2076073;28;20053;-78
2023/10/22 00:53:31;;;;;;;21.23;17.95;;;12.60;99.90;;;;;;2079217;28;20494;-77
2023/10/22 00:54:33;;;;;;;22.35;17.40;;;12.60;99.90;;;;;;2075102;28;20033;-79
2023/10/22 00:55:38;;;;;;;23.60;18.60;;;12.60;99.90;;;;;;2087118;28;20094;-79
2023/10/22 00:56:39;;;;;;;23.83;19.58;;;12.60;99.90;;;;;;2084493;28;20133;-79
2023/10/22 00:57:41;;;;;;;27.17;19.23;;;12.60;99.90;;;;;;2078597;28;20508;-79
2023/10/22 00:58:43;;;;;;;26.13;19.52;;;12.60;99.90;;;;;;2079713;28;20033;-79
2023/10/22 00:59:43;;;;;;;25.55;18.63;;;12.50;99.90;;;;;;2068900;28;20026;-80
2023/10/22 01:00:46;;;;;;;23.00;18.45;;;12.50;99.90;;;;;;2068472;28;20017;-79
2023/10/22 01:01:47;;;;;;;18.90;16.67;;;12.50;99.90;;;;;;2072092;28;20033;-79
2023/10/22 01:02:47;;;;;;;23.50;18.38;;;12.60;99.90;;;;;;2078327;28;20052;-79
2023/10/22 01:03:48;;;;;;;20.10;17.35;;;12.60;99.90;;;;;;2085362;28;20318;-79
2023/10/22 01:04:49;;;;;;;21.35;16.95;;;12.60;99.90;;;;;;2083187;28;20477;-79
2023/10/22 01:05:51;;;;;;;19.45;15.68;;;12.50;99.90;;;;;;2082793;28;20105;-80
2023/10/22 01:06:51;;;;;;;14.38;12.55;;;12.60;99.90;;;;;;2077980;28;20117;-79
2023/10/22 01:07:52;;;;;;;16.00;12.70;;;12.60;99.90;;;;;;2083870;28;20694;-80
2023/10/22 01:08:55;;;;;;;16.88;13.30;;;12.60;99.90;;;;;;2076401;28;20018;-81
2023/10/22 01:09:56;;;;;;;17.05;12.90;;;12.60;99.90;;;;;;2083429;28;20041;-80
2023/10/22 01:11:07;;;;;;;17.73;12.43;;;12.70;99.90;;;;;;2083197;28;20553;-81
2023/10/22 01:12:09;;;;;;;15.43;11.27;;;12.60;99.90;;;;;;2084464;28;20024;-82
2023/10/22 01:13:10;;;;;;;13.98;11.07;;;12.70;99.90;;;;;;2076293;28;20410;-79
2023/10/22 01:14:11;;;;;;;14.43;10.57;;;12.60;99.90;;;;;;2072297;28;20026;-80
2023/10/22 01:15:11;;;;;;;12.43;8.63;;;12.70;99.90;;;;;;2050928;28;20015;-79
2023/10/22 01:16:12;;;;;;;10.73;8.88;;;12.70;99.90;;;;;;2066816;28;20037;-79
2023/10/22 01:17:12;;;;;;;11.10;8.45;;;12.70;99.90;;;;;;2074053;28;20120;-79
2023/10/22 01:18:14;;;;;;;11.07;8.50;;;12.60;99.90;;;;;;2084661;28;20025;-80
2023/10/22 01:19:14;;;;;;;11.85;8.32;;;12.70;99.90;;;;;;2083516;28;20116;-79
2023/10/22 01:20:15;;;;;;;8.55;7.68;;;12.70;99.90;;;;;;2077946;28;20044;-81
2023/10/22 01:21:16;;;;;;;12.25;8.63;;;12.70;99.90;;;;;;2083630;28;20044;-78
2023/10/22 01:22:16;;;;;;;9.32;8.05;;;12.70;99.90;;;;;;2083542;28;20047;-80
2023/10/22 01:23:17;;;;;;;8.45;7.00;;;12.70;99.90;;;;;;2083940;28;20025;-80
2023/10/22 01:24:17;;;;;;;9.25;6.60;;;12.70;99.90;;;;;;2063031;28;20553;-79
2023/10/22 01:25:18;;;;;;;8.23;5.80;;;12.70;99.90;;;;;;2077759;28;20033;-80
2023/10/22 01:26:19;;;;;;;8.07;6.30;;;12.80;99.90;;;;;;2085747;28;20029;-81
2023/10/22 01:27:20;;;;;;;6.68;5.70;;;12.80;99.90;;;;;;2079161;28;20076;-81
2023/10/22 01:28:21;;;;;;;8.32;6.30;;;12.80;99.90;;;;;;2083647;28;20064;-82
2023/10/22 01:29:21;;;;;;;8.75;6.80;;;12.80;99.90;;;;;;2084896;28;20039;-80
2023/10/22 01:30:22;;;;;;;9.27;6.05;;;12.80;99.90;;;;;;2074264;28;20077;-80
2023/10/22 01:31:22;;;;;;;7.70;5.40;;;12.70;99.90;;;;;;2074935;28;20120;-79
2023/10/22 01:32:23;;;;;;;7.63;5.80;;;12.80;99.90;;;;;;2082321;28;20091;-80
2023/10/22 01:33:24;;;;;;;6.22;5.40;;;12.80;99.90;;;;;;2085674;28;20033;-80
2023/10/22 01:34:25;;;;;;;7.28;5.18;;;12.70;99.90;;;;;;2074960;28;20527;-79
2023/10/22 01:35:25;;;;;;;8.10;6.03;;;12.70;99.90;;;;;;2076106;28;20041;-79
2023/10/22 01:36:26;;;;;;;7.20;5.75;;;12.80;99.90;;;;;;2075735;28;20032;-78
2023/10/22 01:37:27;;;;;;;7.30;5.70;;;12.70;99.90;;;;;;2075938;28;20159;-80
2023/10/22 01:38:27;;;;;;;10.13;6.22;;;12.80;99.90;;;;;;2071388;28;20051;-80
2023/10/22 01:39:28;;;;;;;7.18;5.95;;;12.70;99.90;;;;;;2074346;28;20021;-81
2023/10/22 01:40:29;;;;;;;7.30;6.10;;;12.70;99.90;;;;;;2076229;28;20021;-82
2023/10/22 01:41:29;;;;;;;8.85;6.00;;;12.70;99.90;;;;;;2075358;28;20025;-82
2023/10/22 01:42:31;;;;;;;7.95;5.97;;;12.70;99.90;;;;;;2071839;28;20030;-81
2023/10/22 01:43:32;;;;;;;8.95;5.72;;;12.70;99.90;;;;;;2063526;28;20037;-79
2023/10/22 01:44:32;;;;;;;9.20;6.18;;;12.70;99.90;;;;;;2071633;28;20026;-80
2023/10/22 01:45:33;;;;;;;7.88;5.75;;;12.70;99.90;;;;;;2083567;28;20033;-80
2023/10/22 01:46:34;;;;;;;6.97;5.80;;;12.70;99.90;;;;;;2072819;28;20033;-81
2023/10/22 01:47:34;;;;;;;9.30;5.93;;;12.70;99.90;;;;;;2080666;28;20689;-81
2023/10/22 01:48:35;;;;;;;7.22;6.20;;;12.70;99.90;;;;;;2079433;28;20037;-81
2023/10/22 01:49:36;;;;;;;10.00;6.28;;;12.60;99.90;;;;;;2067976;28;20517;-82
2023/10/22 01:50:37;;;;;;;7.22;5.97;;;12.60;99.90;;;;;;2067851;28;20037;-80
2023/10/22 01:51:38;;;;;;;9.38;6.30;;;12.60;99.90;;;;;;2072331;28;20028;-80
2023/10/22 01:52:38;;;;;;;7.00;5.68;;;12.60;99.90;;;;;;2083884;28;20065;-79
2023/10/22 01:53:39;;;;;;;8.77;5.72;;;12.60;99.90;;;;;;2069392;28;20120;-79
2023/10/22 01:54:40;;;;;;;8.00;5.50;;;12.60;99.90;;;;;;2070667;28;20451;-79
2023/10/22 01:55:41;;;;;;;7.05;5.90;;;12.60;99.90;;;;;;2073498;28;20040;-79
2023/10/22 01:56:44;;;;;;;11.07;6.20;;;12.60;99.90;;;;;;2077177;28;20025;-80
2023/10/22 01:57:45;;;;;;;9.05;6.45;;;12.60;99.90;;;;;;2079207;28;20029;-79
2023/10/22 01:58:45;;;;;;;11.90;6.88;;;12.60;99.90;;;;;;2082816;28;20104;-79
2023/10/22 01:59:46;;;;;;;9.25;6.72;;;12.60;99.90;;;;;;2077118;28;20408;-80
2023/10/22 02:00:46;;;;;;;8.27;6.90;;;12.60;99.90;;;;;;2078682;28;20053;-80
2023/10/22 02:01:47;;;;;;;9.77;6.55;;;12.60;99.90;;;;;;2089982;28;20048;-79
2023/10/22 02:02:48;;;;;;;9.68;6.50;;;12.60;99.90;;;;;;2086273;28;20546;-79
2023/10/22 02:03:48;;;;;;;10.23;6.90;;;12.60;99.90;;;;;;2087331;28;20029;-78
2023/10/22 02:04:49;;;;;;;11.57;7.70;;;12.60;99.90;;;;;;2084440;28;20029;-80
2023/10/22 02:05:49;;;;;;;10.57;7.50;;;12.50;99.90;;;;;;2084267;28;20017;-80
2023/10/22 02:06:50;;;;;;;10.55;6.82;;;12.50;99.90;;;;;;2085898;28;20032;-79
2023/10/22 02:07:51;;;;;;;7.78;6.00;;;12.50;99.90;;;;;;2091314;28;20063;-80
2023/10/22 02:08:51;;;;;;;6.82;6.03;;;12.50;99.90;;;;;;2083389;28;20055;-80
2023/10/22 02:09:53;;;;;;;8.82;6.30;;;12.50;99.90;;;;;;2079257;28;20365;-80
2023/10/22 02:10:54;;;;;;;8.30;6.63;;;12.50;99.90;;;;;;2078646;28;20037;-79
2023/10/22 02:11:55;;;;;;;9.57;6.35;;;12.50;99.90;;;;;;2076474;28;20032;-80
2023/10/22 02:12:57;;;;;;;9.30;6.20;;;12.50;99.90;;;;;;2073166;28;20025;-80
2023/10/22 02:13:58;;;;;;;9.30;6.72;;;12.50;99.90;;;;;;2079669;28;20169;-80
2023/10/22 02:15:00;;;;;;;9.60;6.45;;;12.50;99.90;;;;;;2083311;28;20033;-78
2023/10/22 02:16:01;;;;;;;10.15;7.25;;;12.50;99.90;;;;;;2080948;28;20115;-79
2023/10/22 02:17:03;;;;;;;8.75;6.88;;;12.50;99.90;;;;;;2081536;28;20024;-79
2023/10/22 02:18:04;;;;;;;8.10;6.85;;;12.40;99.90;;;;;;2076594;28;20025;-79
2023/10/22 02:19:04;;;;;;;8.50;6.93;;;12.40;99.90;;;;;;2083098;28;20135;-78
2023/10/22 02:20:08;;;;;;;10.52;7.57;;;12.40;99.90;;;;;;2076923;28;20030;-79
2023/10/22 02:21:10;;;;;;;10.15;7.60;;;12.40;99.90;;;;;;2077165;28;20048;-77
2023/10/22 02:22:12;;;;;;;10.80;7.47;;;12.40;99.90;;;;;;2076095;28;20029;-77
2023/10/22 02:23:12;;;;;;;10.90;7.95;;;12.40;99.90;;;;;;2076976;28;20034;-78
2023/10/22 02:24:13;;;;;;;12.13;8.75;;;12.40;99.90;;;;;;2082788;28;20041;-78
2023/10/22 02:25:15;;;;;;;10.80;7.97;;;12.40;99.90;;;;;;2075847;28;20041;-79
2023/10/22 02:26:15;;;;;;;10.80;7.38;;;12.40;99.90;;;;;;2077558;28;20033;-78
2023/10/22 02:27:16;;;;;;;9.13;7.32;;;12.40;99.90;;;;;;2083292;28;20793;-78
2023/10/22 02:28:17;;;;;;;10.48;7.43;;;12.40;99.90;;;;;;2081816;28;20040;-78
2023/10/22 02:29:18;;;;;;;9.38;6.50;;;12.40;99.90;;;;;;2075878;28;20045;-78
2023/10/22 02:30:18;;;;;;;8.30;6.65;;;12.40;99.90;;;;;;2078841;28;20025;-78
2023/10/22 02:31:20;;;;;;;7.82;6.28;;;12.40;99.90;;;;;;2081192;28;20032;-77
2023/10/22 02:32:20;;;;;;;10.70;8.23;;;12.40;99.90;;;;;;2077962;28;20057;-79
2023/10/22 02:33:21;;;;;;;10.60;8.57;;;12.40;99.90;;;;;;2081277;28;20033;-78
2023/10/22 02:34:22;;;;;;;9.65;7.40;;;12.40;99.90;;;;;;2079729;28;20040;-79
2023/10/22 02:35:22;;;;;;;9.43;7.07;;;12.40;99.90;;;;;;2082351;28;20559;-79
2023/10/22 02:36:24;;;;;;;9.52;7.40;;;12.40;99.90;;;;;;2081901;28;20029;-78
2023/10/22 02:37:25;;;;;;;8.63;6.93;;;12.40;99.90;;;;;;2082231;28;20096;-78
2023/10/22 02:38:25;;;;;;;8.45;7.03;;;12.40;99.90;;;;;;2086392;28;20035;-79
2023/10/22 02:39:27;;;;;;;8.40;7.40;;;12.40;99.90;;;;;;2081169;28;20045;-78
2023/10/22 02:40:27;;;;;;;8.57;7.40;;;12.40;99.90;;;;;;2077733;28;20536;-78
2023/10/22 02:41:30;;;;;;;9.82;6.30;;;12.40;99.90;;;;;;2084138;28;20048;-77
2023/10/22 02:42:31;;;;;;;10.00;6.90;;;12.40;99.90;;;;;;2076733;28;20488;-77
2023/10/22 02:43:31;;;;;;;8.13;6.15;;;12.40;99.90;;;;;;2076999;28;20029;-78
2023/10/22 02:44:32;;;;;;;9.02;6.28;;;12.40;99.90;;;;;;2076844;28;20590;-76
2023/10/22 02:45:33;;;;;;;7.13;5.50;;;12.40;99.90;;;;;;2075775;28;20052;-77
2023/10/22 02:46:33;;;;;;;6.57;5.35;;;12.40;99.90;;;;;;2072933;28;20060;-78
2023/10/22 02:47:35;;;;;;;7.05;5.20;;;12.40;99.90;;;;;;2069142;28;20113;-78
2023/10/22 02:48:35;;;;;;;8.05;5.47;;;12.40;99.90;;;;;;2083374;28;20650;-77
2023/10/22 02:49:36;;;;;;;7.78;5.57;;;12.40;99.90;;;;;;2082834;28;20028;-78
2023/10/22 02:50:38;;;;;;;6.95;5.55;;;12.40;99.90;;;;;;2076632;28;20468;-78
2023/10/22 02:51:39;;;;;;;6.18;5.38;;;12.40;99.90;;;;;;2087857;28;20109;-77
2023/10/22 02:52:39;;;;;;;6.80;5.30;;;12.30;99.90;;;;;;2083590;28;20036;-79
2023/10/22 02:53:40;;;;;;;6.82;5.22;;;12.30;99.90;;;;;;2076738;28;20025;-78
2023/10/22 02:54:40;;;;;;;7.78;5.38;;;12.30;99.90;;;;;;2088879;28;20492;-79
2023/10/22 02:55:41;;;;;;;5.85;4.90;;;12.30;99.90;;;;;;2079799;28;20528;-79
2023/10/22 02:56:42;;;;;;;7.00;5.20;;;12.30;99.90;;;;;;2074654;28;20103;-78
2023/10/22 02:57:43;;;;;;;7.47;5.53;;;12.40;99.90;;;;;;2076190;28;20035;-79
2023/10/22 02:58:43;;;;;;;7.88;6.32;;;12.40;99.90;;;;;;2084368;28;20020;-79
2023/10/22 02:59:44;;;;;;;9.73;7.20;;;12.30;99.90;;;;;;2071826;28;20178;-78
2023/10/22 03:00:44;;;;;;;9.73;7.93;;;12.40;99.90;;;;;;2078690;28;20033;-78
2023/10/22 03:01:45;;;;;;;10.07;7.63;;;12.40;99.90;;;;;;2072651;28;20113;-78
2023/10/22 03:02:46;;;;;;;9.80;8.05;;;12.40;99.90;;;;;;2077087;28;20513;-78
2023/10/22 03:03:49;;;;;;;10.70;8.38;;;12.30;99.90;;;;;;2082624;28;20112;-78
2023/10/22 03:04:49;;;;;;;10.43;7.90;;;12.30;99.90;;;;;;2079700;28;20040;-79
2023/10/22 03:05:50;;;;;;;11.02;7.90;;;12.30;99.90;;;;;;2084081;28;20511;-80
2023/10/22 03:06:52;;;;;;;10.07;8.07;;;12.40;99.90;;;;;;2084862;28;20024;-78
2023/10/22 03:07:53;;;;;;;9.65;7.10;;;12.40;99.90;;;;;;2079015;28;20037;-79
2023/10/22 03:08:54;;;;;;;10.40;6.88;;;12.30;99.90;;;;;;2082602;28;20029;-79
2023/10/22 03:09:55;;;;;;;8.75;7.05;;;12.30;99.90;;;;;;2084657;28;20095;-79
2023/10/22 03:10:55;;;;;;;9.63;7.57;;;12.30;99.90;;;;;;2083371;28;20021;-76
2023/10/22 03:11:56;;;;;;;10.07;8.15;;;12.30;99.90;;;;;;2078848;28;20356;-80
2023/10/22 03:12:58;;;;;;;11.85;8.85;;;12.30;99.90;;;;;;2081572;28;20032;-78
2023/10/22 03:13:58;;;;;;;12.73;8.65;;;12.30;99.90;;;;;;2077497;28;20029;-70
2023/10/22 03:14:59;;;;;;;12.18;8.88;;;12.30;99.90;;;;;;2083706;28;20093;-70
2023/10/22 03:16:14;;;;;;;12.18;8.20;;;12.30;99.90;;;;;;2076561;28;20959;-70
2023/10/22 03:17:16;;;;;;;12.15;8.32;;;12.30;99.90;;;;;;2074332;28;20041;-70
2023/10/22 03:18:17;;;;;;;11.10;7.82;;;12.30;99.90;;;;;;2075222;28;20068;-70
2023/10/22 03:19:19;;;;;;;10.65;8.20;;;12.30;99.90;;;;;;2077249;28;20064;-70
2023/10/22 03:20:22;;;;;;;10.57;8.10;;;12.30;99.90;;;;;;2080979;28;20026;-70
2023/10/22 03:21:25;;;;;;;11.25;8.02;;;12.30;99.90;;;;;;2083596;28;20405;-69
2023/10/22 03:22:25;;;;;;;10.95;7.88;;;12.30;99.90;;;;;;2074581;28;20140;-69
2023/10/22 03:23:26;;;;;;;11.70;9.18;;;12.30;99.90;;;;;;2076982;28;20026;-69
2023/10/22 03:24:28;;;;;;;10.15;8.38;;;12.30;99.90;;;;;;2083398;28;20550;-70
2023/10/22 03:25:28;;;;;;;12.35;8.10;;;12.30;99.90;;;;;;2079591;28;20040;-70
2023/10/22 03:26:30;;;;;;;11.65;8.32;;;12.30;99.90;;;;;;2086359;28;20033;-72
2023/10/22 03:27:30;;;;;;;11.15;8.13;;;12.20;99.90;;;;;;2078438;28;20534;-70
2023/10/22 03:28:31;;;;;;;10.65;8.23;;;12.20;99.90;;;;;;2083179;28;20140;-69
2023/10/22 03:29:32;;;;;;;9.73;8.13;;;12.20;99.90;;;;;;2080661;28;20115;-71
2023/10/22 03:30:37;;;;;;;9.57;8.10;;;12.20;99.90;;;;;;2077435;28;20044;-70
2023/10/22 03:31:38;;;;;;;10.45;8.13;;;12.20;99.90;;;;;;2075753;28;20083;-70
2023/10/22 03:32:39;;;;;;;10.50;8.48;;;12.20;99.90;;;;;;2079141;28;20041;-70
2023/10/22 03:33:40;;;;;;;10.75;8.43;;;12.20;99.90;;;;;;2075350;28;20513;-70
2023/10/22 03:34:41;;;;;;;10.68;8.55;;;12.20;99.90;;;;;;2075867;28;20057;-70
2023/10/22 03:35:41;;;;;;;9.98;8.10;;;12.20;99.90;;;;;;2076018;28;20159;-70
2023/10/22 03:36:44;;;;;;;11.43;8.50;;;12.20;99.90;;;;;;2082516;28;20679;-70
2023/10/22 03:37:45;;;;;;;12.05;8.10;;;12.20;99.90;;;;;;2082721;28;20025;-70
2023/10/22 03:38:45;;;;;;;7.95;7.13;;;12.20;99.90;;;;;;2075956;28;20104;-70
2023/10/22 03:39:46;;;;;;;10.45;7.40;;;12.20;99.90;;;;;;2075992;28;20033;-71
2023/10/22 03:40:47;;;;;;;10.18;7.30;;;12.20;99.90;;;;;;2084070;28;20781;-70
2023/10/22 03:41:47;;;;;;;7.95;6.97;;;12.20;99.90;;;;;;2086939;28;20032;-70
2023/10/22 03:42:48;;;;;;;9.88;7.38;;;12.20;99.90;;;;;;2077111;28;20033;-71
2023/10/22 03:43:49;;;;;;;8.90;6.85;;;12.20;99.90;;;;;;2082081;28;20040;-70
2023/10/22 03:44:49;;;;;;;9.88;6.68;;;12.20;99.90;;;;;;2083633;28;20036;-70
2023/10/22 03:45:50;;;;;;;8.50;6.30;;;12.20;99.90;;;;;;2075163;28;20053;-70
2023/10/22 03:46:51;;;;;;;8.00;6.53;;;12.20;99.90;;;;;;2080162;28;20052;-70
2023/10/22 03:47:51;;;;;;;8.43;6.70;;;12.20;99.90;;;;;;2079641;28;20095;-70
2023/10/22 03:48:52;;;;;;;8.65;5.93;;;12.20;99.90;;;;;;2083001;28;20025;-70
2023/10/22 03:49:53;;;;;;;7.93;6.40;;;12.20;99.90;;;;;;2075141;28;20685;-70
2023/10/22 03:50:54;;;;;;;8.25;6.25;;;12.20;99.90;;;;;;2078517;28;20113;-70
2023/10/22 03:51:55;;;;;;;8.48;6.18;;;12.20;99.90;;;;;;2079865;28;20017;-70
2023/10/22 03:52:55;;;;;;;7.35;6.20;;;12.20;99.90;;;;;;2075067;28;20076;-70
2023/10/22 03:53:56;;;;;;;7.65;6.65;;;12.20;99.90;;;;;;2075128;28;20033;-70
2023/10/22 03:54:57;;;;;;;7.45;6.55;;;12.20;99.90;;;;;;2075152;28;20026;-70
2023/10/22 03:55:57;;;;;;;7.78;6.60;;;12.20;99.90;;;;;;2073317;28;20045;-71
2023/10/22 03:56:58;;;;;;;7.78;6.82;;;12.10;99.90;;;;;;2076901;28;20488;-71
2023/10/22 03:57:59;;;;;;;8.43;6.53;;;12.10;99.90;;;;;;2078589;28;20562;-70
2023/10/22 03:59:00;;;;;;;8.05;6.40;;;12.10;99.90;;;;;;2077144;28;20035;-71
2023/10/22 04:00:01;;;;;;;8.15;6.60;;;12.10;99.90;;;;;;2085589;28;20013;-70
2023/10/22 04:01:12;;;;;;;8.60;6.45;;;12.10;99.90;;;;;;2075344;28;20503;-70
2023/10/22 04:02:12;;;;;;;9.00;6.65;;;12.10;99.90;;;;;;2076131;28;20037;-69
2023/10/22 04:03:13;;;;;;;7.85;6.90;;;12.10;99.90;;;;;;2082850;28;20108;-69
2023/10/22 04:04:14;;;;;;;9.30;6.85;;;12.10;99.90;;;;;;2081608;28;20029;-69
2023/10/22 04:05:14;;;;;;;9.07;6.55;;;12.10;99.90;;;;;;2076765;28;20029;-71
2023/10/22 04:06:15;;;;;;;7.65;6.45;;;12.10;99.90;;;;;;2082487;28;20080;-71
2023/10/22 04:07:15;;;;;;;8.43;6.80;;;12.10;99.90;;;;;;2075666;28;20099;-71
2023/10/22 04:08:16;;;;;;;8.38;7.45;;;12.10;99.90;;;;;;2079683;28;20118;-71
2023/10/22 04:09:17;;;;;;;9.80;6.93;;;12.10;99.90;;;;;;2082934;28;20160;-71
2023/10/22 04:10:17;;;;;;;8.90;7.13;;;12.10;99.90;;;;;;2083607;28;20280;-70
2023/10/22 04:11:21;;;;;;;9.40;7.30;;;12.10;99.90;;;;;;2076801;28;20657;-69
2023/10/22 04:12:22;;;;;;;9.93;7.20;;;12.10;99.90;;;;;;2083599;28;20038;-70
2023/10/22 04:13:23;;;;;;;9.23;7.43;;;12.10;99.90;;;;;;2080511;28;20697;-70
2023/10/22 04:14:23;;;;;;;9.90;7.85;;;12.20;99.90;;;;;;2084557;28;20215;-70
2023/10/22 04:15:24;;;;;;;10.48;7.57;;;12.20;99.90;;;;;;2081949;28;20025;-70
2023/10/22 04:16:24;;;;;;;9.52;7.80;;;12.20;99.90;;;;;;2075651;28;20025;-70
2023/10/22 04:17:25;;;;;;;9.52;7.63;;;12.20;99.90;;;;;;2083770;28;20035;-70
2023/10/22 04:18:26;;;;;;;11.65;8.38;;;12.20;99.90;;;;;;2075062;28;20034;-70
2023/10/22 04:19:26;;;;;;;10.00;8.07;;;12.20;99.90;;;;;;2066715;28;20022;-70
2023/10/22 04:20:27;;;;;;;11.43;8.65;;;12.20;99.90;;;;;;2074745;28;20018;-70
2023/10/22 04:21:27;;;;;;;11.30;8.50;;;12.10;99.90;;;;;;2078139;28;20056;-70
2023/10/22 04:22:28;;;;;;;10.70;8.30;;;12.10;99.90;;;;;;2079214;28;20650;-72
2023/10/22 04:23:28;;;;;;;9.13;7.97;;;12.10;99.90;;;;;;2079730;28;20033;-69
2023/10/22 04:24:30;;;;;;;11.13;7.93;;;12.10;99.90;;;;;;2076777;28;20672;-69
2023/10/22 04:25:35;;;;;;;8.95;8.05;;;12.10;99.90;;;;;;2079788;28;20129;-70
2023/10/22 04:26:36;;;;;;;10.07;7.28;;;12.10;99.90;;;;;;2078722;28;20041;-69
2023/10/22 04:27:36;;;;;;;10.95;8.60;;;12.10;99.90;;;;;;2079808;28;20028;-70
2023/10/22 04:28:37;;;;;;;11.40;8.65;;;12.10;99.90;;;;;;2076562;28;20060;-70
2023/10/22 04:29:38;;;;;;;10.27;8.13;;;12.10;99.90;;;;;;2083536;28;20044;-69
2023/10/22 04:30:39;;;;;;;12.52;8.73;;;12.10;99.90;;;;;;2078642;28;20071;-70
2023/10/22 04:31:40;;;;;;;9.25;8.15;;;12.10;99.90;;;;;;2079606;28;20021;-69
2023/10/22 04:32:41;;;;;;;11.82;8.70;;;12.10;99.90;;;;;;2079692;28;20573;-69
2023/10/22 04:33:41;;;;;;;10.82;8.43;;;12.10;99.90;;;;;;2075466;28;20081;-69
2023/10/22 04:34:42;;;;;;;11.43;8.70;;;12.10;99.90;;;;;;2074809;28;20037;-68
2023/10/22 04:35:43;;;;;;;11.82;8.80;;;12.10;99.90;;;;;;2074915;28;20488;-70
2023/10/22 04:36:44;;;;;;;10.73;8.40;;;12.10;99.90;;;;;;2077216;28;20040;-69
2023/10/22 04:37:44;;;;;;;9.65;8.63;;;12.10;99.90;;;;;;2083201;28;20028;-70
2023/10/22 04:38:45;;;;;;;10.75;8.70;;;12.10;99.90;;;;;;2075451;28;20029;-70
2023/10/22 04:39:45;;;;;;;9.77;8.50;;;12.10;99.90;;;;;;2075464;28;20036;-70
2023/10/22 04:40:46;;;;;;;10.35;8.80;;;12.10;99.90;;;;;;2083372;28;20099;-69
2023/10/22 04:41:46;;;;;;;10.90;8.75;;;12.10;99.90;;;;;;2075770;28;20032;-71
2023/10/22 04:42:47;;;;;;;10.38;7.85;;;12.10;99.90;;;;;;2082790;28;20021;-70
2023/10/22 04:43:47;;;;;;;11.75;8.88;;;12.10;99.90;;;;;;2083100;28;20020;-71
2023/10/22 04:44:48;;;;;;;9.10;8.07;;;12.10;99.90;;;;;;2074773;28;20610;-70
2023/10/22 04:45:49;;;;;;;9.57;8.57;;;12.10;99.90;;;;;;2079513;28;20028;-70
2023/10/22 04:46:51;;;;;;;11.32;8.50;;;12.10;99.90;;;;;;2080922;28;20041;-70
2023/10/22 04:47:54;;;;;;;10.23;8.57;;;12.10;99.90;;;;;;2077653;28;20045;-70
2023/10/22 04:48:54;;;;;;;10.73;8.77;;;12.10;99.90;;;;;;2080533;28;20025;-70
2023/10/22 04:49:55;;;;;;;9.90;8.88;;;12.10;99.90;;;;;;2075209;28;20105;-70
2023/10/22 04:50:59;;;;;;;12.57;10.48;;;12.20;99.90;;;;;;2082378;28;20109;-71
2023/10/22 04:52:00;;;;;;;12.88;10.38;;;12.20;99.90;;;;;;2080732;28;20496;-70
2023/10/22 04:53:00;;;;;;;10.77;9.35;;;12.20;99.90;;;;;;2078265;28;20026;-70
2023/10/22 04:54:01;;;;;;;12.00;8.77;;;12.20;99.90;;;;;;2076819;28;20749;-71
2023/10/22 04:55:01;;;;;;;11.00;8.80;;;12.20;99.90;;;;;;2082904;28;20024;-71
2023/10/22 04:56:02;;;;;;;12.30;8.90;;;12.20;99.90;;;;;;2080010;28;20121;-69
2023/10/22 04:57:03;;;;;;;10.52;8.35;;;12.20;99.90;;;;;;2078599;28;20030;-69
2023/10/22 04:58:04;;;;;;;12.48;9.40;;;12.10;99.90;;;;;;2077006;28;20041;-70
2023/10/22 04:59:04;;;;;;;9.10;8.20;;;12.20;99.90;;;;;;2082800;28;20044;-70
2023/10/22 05:00:07;;;;;;;10.43;8.80;;;12.20;99.90;;;;;;2079816;28;20025;-70
2023/10/22 05:01:09;;;;;;;11.63;8.40;;;12.20;99.90;;;;;;2081461;28;20748;-70
2023/10/22 05:02:10;;;;;;;11.20;8.75;;;12.20;99.90;;;;;;2082462;28;20087;-70
2023/10/22 05:03:12;;;;;;;10.63;8.63;;;12.20;99.90;;;;;;2080908;28;20020;-70
2023/10/22 05:04:12;;;;;;;10.13;7.82;;;12.20;99.90;;;;;;2076710;28;20017;-70
2023/10/22 05:05:13;;;;;;;11.38;8.20;;;12.20;99.90;;;;;;2074365;28;20029;-70
2023/10/22 05:06:14;;;;;;;10.35;8.63;;;12.20;99.90;;;;;;2082189;28;20024;-70
2023/10/22 05:07:15;;;;;;;11.98;8.65;;;12.20;99.90;;;;;;2079745;28;20048;-70
2023/10/22 05:08:16;;;;;;;10.25;8.70;;;12.10;99.90;;;;;;2083424;28;20103;-69
2023/10/22 05:09:16;;;;;;;11.82;8.60;;;12.20;99.90;;;;;;2081313;28;20027;-69
2023/10/22 05:10:17;;;;;;;11.32;8.52;;;12.20;99.90;;;;;;2075229;28;20575;-69
2023/10/22 05:11:17;;;;;;;10.40;8.35;;;12.20;99.90;;;;;;2083234;28;20478;-72
2023/10/22 05:12:18;;;;;;;14.82;11.05;;;12.20;99.90;;;;;;2081827;28;20122;-69
2023/10/22 05:13:22;;;;;;;12.07;8.80;;;12.10;99.90;;;;;;2078384;28;20049;-70
2023/10/22 05:14:22;;;;;;;13.10;8.80;;;12.10;99.90;;;;;;2075218;28;20024;-70